createdAt,value
2022-09-04T00:00:21.121Z,13.48
2022-09-04T00:03:03.850Z,13.40
2022-09-04T00:05:30.385Z,13.32
2022-09-04T00:08:21.844Z,13.24
2022-09-04T00:10:54.289Z,13.34
2022-09-04T00:13:35.662Z,13.23
2022-09-04T00:16:02.215Z,13.16
2022-09-04T00:18:35.954Z,13.10
2022-09-04T00:21:17.870Z,13.07
2022-09-04T00:23:53.620Z,13.01
2022-09-04T00:26:44.451Z,12.98
2022-09-04T00:29:18.808Z,13.19
2022-09-04T00:31:50.986Z,13.00
2022-09-04T00:34:17.574Z,12.91
2022-09-04T00:36:50.105Z,12.83
2022-09-04T00:39:26.443Z,12.79
2022-09-04T00:42:05.284Z,12.71
2022-09-04T00:44:37.917Z,12.64
2022-09-04T00:47:07.316Z,12.69
2022-09-04T00:49:51.055Z,12.64
2022-09-04T00:52:36.619Z,12.69
2022-09-04T00:55:25.604Z,12.52
2022-09-04T00:57:58.330Z,12.41
2022-09-04T01:00:27.753Z,12.34
2022-09-04T01:03:12.428Z,12.28
2022-09-04T01:06:16.266Z,12.31
2022-09-04T01:08:56.281Z,12.37
2022-09-04T01:11:43.185Z,12.37
2022-09-04T01:14:29.634Z,12.31
2022-09-04T01:17:12.185Z,12.32
2022-09-04T01:19:49.830Z,12.24
2022-09-04T01:22:36.587Z,12.21
2022-09-04T01:25:21.668Z,12.39
2022-09-04T01:27:58.958Z,12.47
2022-09-04T01:30:25.734Z,12.36
2022-09-04T01:33:07.783Z,12.29
2022-09-04T01:36:08.629Z,12.26
2022-09-04T01:38:51.518Z,12.20
2022-09-04T01:41:33.954Z,12.20
2022-09-04T01:44:06.094Z,12.23
2022-09-04T01:46:51.236Z,12.22
2022-09-04T01:49:33.354Z,12.16
2022-09-04T01:52:14.813Z,12.18
2022-09-04T01:55:00.243Z,12.07
2022-09-04T01:57:57.791Z,12.00
2022-09-04T02:00:25.160Z,12.03
2022-09-04T02:03:16.320Z,11.97
2022-09-04T02:06:04.573Z,12.06
2022-09-04T02:08:55.510Z,11.96
2022-09-04T02:11:28.603Z,11.90
2022-09-04T02:14:20.076Z,11.85
2022-09-04T02:17:11.143Z,11.86
2022-09-04T02:20:05.929Z,11.87
2022-09-04T02:22:50.794Z,11.82
2022-09-04T02:25:22.975Z,11.74
2022-09-04T02:28:08.433Z,11.65
2022-09-04T02:30:54.297Z,11.53
2022-09-04T02:33:46.133Z,11.51
2022-09-04T02:36:27.994Z,11.51
2022-09-04T02:39:11.931Z,11.45
2022-09-04T02:41:55.412Z,11.36
2022-09-04T02:44:24.854Z,11.64
2022-09-04T02:47:12.228Z,11.78
2022-09-04T02:49:56.151Z,11.79
2022-09-04T02:52:33.329Z,11.85
2022-09-04T02:55:15.082Z,11.92
2022-09-04T02:57:55.149Z,11.88
2022-09-04T03:00:39.423Z,11.81
2022-09-04T03:03:16.003Z,11.86
2022-09-04T03:06:06.233Z,11.86
2022-09-04T03:08:59.799Z,11.88
2022-09-04T03:11:38.801Z,11.86
2022-09-04T03:14:24.699Z,11.90
2022-09-04T03:17:07.951Z,11.83
2022-09-04T03:19:54.204Z,11.94
2022-09-04T03:22:55.565Z,11.93
2022-09-04T03:25:40.804Z,11.94
2022-09-04T03:28:09.311Z,11.80
2022-09-04T03:30:36.370Z,11.74
2022-09-04T03:33:16.223Z,11.71
2022-09-04T03:35:46.712Z,11.53
2022-09-04T03:38:28.475Z,11.34
2022-09-04T03:40:55.094Z,11.47
2022-09-04T03:43:31.511Z,11.57
2022-09-04T03:46:13.375Z,11.56
2022-09-04T03:48:46.745Z,11.58
2022-09-04T03:51:13.342Z,11.60
2022-09-04T03:54:32.371Z,11.69
2022-09-04T03:57:23.583Z,11.59
2022-09-04T04:00:09.936Z,11.50
2022-09-04T04:02:54.177Z,11.55
2022-09-04T04:05:44.678Z,11.47
2022-09-04T04:08:47.370Z,11.45
2022-09-04T04:11:43.729Z,11.43
2022-09-04T04:14:10.493Z,11.41
2022-09-04T04:17:00.077Z,11.32
2022-09-04T04:20:05.874Z,11.18
2022-09-04T04:22:54.937Z,11.24
2022-09-04T04:25:30.502Z,11.15
2022-09-04T04:28:20.184Z,11.13
2022-09-04T04:30:54.921Z,11.01
2022-09-04T04:33:36.842Z,10.89
2022-09-04T04:36:25.061Z,10.87
2022-09-04T04:39:16.661Z,10.83
2022-09-04T04:42:06.557Z,10.70
2022-09-04T04:45:07.324Z,10.59
2022-09-04T04:48:01.639Z,10.57
2022-09-04T04:51:05.958Z,10.55
2022-09-04T04:53:56.923Z,10.69
2022-09-04T04:56:51.483Z,10.86
2022-09-04T04:59:23.598Z,11.11
2022-09-04T05:01:57.666Z,11.45
2022-09-04T05:04:58.083Z,11.88
2022-09-04T05:07:36.963Z,12.25
2022-09-04T05:10:28.744Z,12.62
2022-09-04T05:13:17.008Z,12.47
2022-09-04T05:16:22.533Z,12.44
2022-09-04T05:19:14.597Z,12.24
2022-09-04T05:21:53.391Z,12.12
2022-09-04T05:24:30.408Z,12.52
2022-09-04T05:27:28.017Z,13.05
2022-09-04T05:30:10.064Z,13.47
2022-09-04T05:33:03.452Z,13.71
2022-09-04T05:36:00.232Z,13.72
2022-09-04T05:38:42.637Z,14.12
2022-09-04T05:41:50.288Z,14.39
2022-09-04T05:44:23.083Z,14.88
2022-09-04T05:46:52.740Z,15.19
2022-09-04T05:49:50.477Z,15.80
2022-09-04T05:52:32.572Z,15.63
2022-09-04T05:55:21.243Z,15.73
2022-09-04T05:58:22.709Z,15.86
2022-09-04T06:01:24.961Z,15.86
2022-09-04T06:03:58.556Z,15.63
2022-09-04T06:07:12.381Z,15.92
2022-09-04T06:09:47.222Z,16.40
2022-09-04T06:12:32.228Z,16.23
2022-09-04T06:15:03.315Z,16.38
2022-09-04T06:17:51.293Z,16.85
2022-09-04T06:21:08.445Z,16.52
2022-09-04T06:24:04.855Z,16.35
2022-09-04T06:27:02.928Z,16.30
2022-09-04T06:30:12.492Z,16.81
2022-09-04T06:33:04.662Z,16.56
2022-09-04T06:35:37.745Z,16.45
2022-09-04T06:38:36.544Z,16.56
2022-09-04T06:41:27.278Z,16.80
2022-09-04T06:43:56.949Z,16.67
2022-09-04T06:46:42.997Z,16.62
2022-09-04T06:49:24.087Z,17.10
2022-09-04T06:51:57.729Z,17.24
2022-09-04T06:54:43.268Z,17.46
2022-09-04T06:57:48.187Z,16.95
2022-09-04T07:00:16.046Z,17.28
2022-09-04T07:02:58.754Z,17.37
2022-09-04T07:05:31.391Z,17.42
2022-09-04T07:08:00.754Z,17.78
2022-09-04T07:10:35.506Z,17.72
2022-09-04T07:13:23.674Z,17.74
2022-09-04T07:16:19.848Z,17.60
2022-09-04T07:19:07.799Z,17.72
2022-09-04T07:22:08.165Z,17.85
2022-09-04T07:24:59.347Z,18.01
2022-09-04T07:27:37.162Z,18.19
2022-09-04T07:30:05.907Z,18.32
2022-09-04T07:32:41.767Z,18.24
2022-09-04T07:35:16.345Z,18.05
2022-09-04T07:38:02.920Z,18.24
2022-09-04T07:40:45.384Z,18.53
2022-09-04T07:43:44.453Z,18.50
2022-09-04T07:46:22.783Z,18.72
2022-09-04T07:48:57.852Z,18.64
2022-09-04T07:51:30.017Z,18.77
2022-09-04T07:54:12.531Z,18.72
2022-09-04T07:57:11.018Z,18.47
2022-09-04T07:59:59.822Z,18.78
2022-09-04T08:02:52.215Z,18.50
2022-09-04T08:05:23.250Z,18.50
2022-09-04T08:08:14.356Z,18.78
2022-09-04T08:11:02.503Z,19.12
2022-09-04T08:13:47.532Z,18.96
2022-09-04T08:16:21.754Z,19.08
2022-09-04T08:19:15.759Z,19.25
2022-09-04T08:21:43.958Z,19.37
2022-09-04T08:24:53.211Z,19.08
2022-09-04T08:27:44.107Z,19.26
2022-09-04T08:30:14.265Z,19.33
2022-09-04T08:33:02.730Z,19.60
2022-09-04T08:35:41.612Z,19.52
2022-09-04T08:38:08.385Z,19.43
2022-09-04T08:40:57.731Z,19.72
2022-09-04T08:44:02.654Z,19.88
2022-09-04T08:47:11.400Z,20.36
2022-09-04T08:49:46.938Z,20.30
2022-09-04T08:52:52.651Z,20.32
2022-09-04T08:55:25.474Z,20.74
2022-09-04T08:58:17.094Z,20.41
2022-09-04T09:01:11.830Z,20.52
2022-09-04T09:03:41.549Z,20.67
2022-09-04T09:06:29.632Z,20.81
2022-09-04T09:09:11.473Z,21.02
2022-09-04T09:11:56.024Z,21.06
2022-09-04T09:14:45.452Z,20.94
2022-09-04T09:17:27.951Z,20.97
2022-09-04T09:20:11.057Z,20.91
2022-09-04T09:22:38.634Z,21.28
2022-09-04T09:25:21.373Z,21.22
2022-09-04T09:28:12.970Z,21.25
2022-09-04T09:31:09.483Z,21.26
2022-09-04T09:34:11.510Z,21.37
2022-09-04T09:37:08.166Z,21.33
2022-09-04T09:39:56.796Z,21.35
2022-09-04T09:42:32.660Z,21.45
2022-09-04T09:45:21.088Z,21.61
2022-09-04T09:48:17.125Z,21.82
2022-09-04T09:51:17.234Z,21.61
2022-09-04T09:54:15.680Z,21.72
2022-09-04T09:57:21.270Z,21.99
2022-09-04T10:00:14.659Z,22.10
2022-09-04T10:02:53.831Z,21.98
2022-09-04T10:05:37.505Z,22.28
2022-09-04T10:08:16.242Z,22.33
2022-09-04T10:11:10.393Z,22.24
2022-09-04T10:13:58.048Z,22.50
2022-09-04T10:17:17.219Z,22.66
2022-09-04T10:20:21.627Z,22.75
2022-09-04T10:22:56.179Z,22.56
2022-09-04T10:25:55.490Z,22.64
2022-09-04T10:28:48.810Z,22.89
2022-09-04T10:31:37.505Z,22.76
2022-09-04T10:34:10.463Z,23.03
2022-09-04T10:37:08.083Z,23.25
2022-09-04T10:40:12.012Z,23.18
2022-09-04T10:43:16.492Z,22.95
2022-09-04T10:45:48.071Z,23.03
2022-09-04T10:49:05.804Z,23.19
2022-09-04T10:51:47.087Z,23.26
2022-09-04T10:54:29.699Z,23.10
2022-09-04T10:57:25.041Z,23.26
2022-09-04T11:03:21.977Z,23.54
2022-09-04T11:06:29.631Z,23.91
2022-09-04T11:12:20.039Z,23.65
2022-09-04T11:15:35.730Z,23.73
2022-09-04T11:18:19.291Z,23.81
2022-09-04T11:21:03.897Z,23.53
2022-09-04T11:24:11.759Z,23.63
2022-09-04T11:27:05.990Z,23.77
2022-09-04T11:30:06.488Z,24.10
2022-09-04T11:32:58.229Z,24.11
2022-09-04T11:35:40.061Z,24.06
2022-09-04T11:38:40.090Z,24.06
2022-09-04T11:41:45.109Z,24.35
2022-09-04T11:44:42.709Z,24.23
2022-09-04T11:47:35.031Z,24.41
2022-09-04T11:50:36.822Z,24.46
2022-09-04T11:53:26.875Z,24.39
2022-09-04T11:56:24.825Z,24.45
2022-09-04T11:59:35.916Z,24.59
2022-09-04T12:03:43.251Z,24.98
2022-09-04T12:13:24.868Z,25.33
2022-09-04T12:16:14.378Z,25.34
2022-09-04T12:19:06.048Z,25.41
2022-09-04T12:22:06.797Z,25.56
2022-09-04T12:24:53.399Z,25.45
2022-09-04T12:27:33.324Z,25.38
2022-09-04T12:30:05.207Z,25.52
2022-09-04T12:32:59.749Z,25.70
2022-09-04T12:36:06.997Z,25.38
2022-09-04T12:38:52.912Z,25.41
2022-09-04T12:41:29.472Z,25.55
2022-09-04T12:47:37.904Z,25.25
2022-09-04T12:50:10.309Z,25.39
2022-09-04T12:52:51.579Z,25.44
2022-09-04T12:55:22.951Z,25.86
2022-09-04T12:57:55.612Z,25.91
2022-09-04T13:00:31.699Z,25.88
2022-09-04T13:03:17.356Z,25.84
2022-09-04T13:06:04.340Z,26.05
2022-09-04T13:08:58.587Z,26.15
2022-09-04T13:12:09.872Z,26.22
2022-09-04T13:14:43.095Z,26.21
2022-09-04T13:17:32.585Z,26.49
2022-09-04T13:20:18.787Z,26.65
2022-09-04T13:23:11.162Z,26.54
2022-09-04T13:25:58.582Z,26.54
2022-09-04T13:28:38.063Z,26.61
2022-09-04T13:31:27.942Z,26.31
2022-09-04T13:34:17.239Z,26.26
2022-09-04T13:36:48.194Z,26.31
2022-09-04T13:39:34.716Z,26.27
2022-09-04T13:42:14.807Z,26.22
2022-09-04T13:45:05.745Z,26.33
2022-09-04T13:47:40.595Z,26.54
2022-09-04T13:50:23.699Z,26.46
2022-09-04T13:53:17.218Z,26.04
2022-09-04T13:55:54.348Z,26.04
2022-09-04T13:58:34.386Z,26.08
2022-09-04T14:01:07.119Z,26.16
2022-09-04T14:04:11.620Z,25.98
2022-09-04T14:06:38.972Z,25.90
2022-09-04T14:09:06.259Z,25.92
2022-09-04T14:12:10.366Z,26.10
2022-09-04T14:15:11.433Z,26.54
2022-09-04T14:17:46.253Z,26.66
2022-09-04T14:20:29.274Z,26.59
2022-09-04T14:23:02.686Z,26.49
2022-09-04T14:26:10.749Z,26.72
2022-09-04T14:28:49.489Z,27.03
2022-09-04T14:31:24.255Z,26.95
2022-09-04T14:34:02.146Z,27.13
2022-09-04T14:37:08.072Z,27.14
2022-09-04T14:39:48.122Z,27.23
2022-09-04T14:42:20.007Z,27.00
2022-09-04T14:44:52.752Z,26.88
2022-09-04T14:47:40.810Z,26.68
2022-09-04T14:50:09.270Z,26.68
2022-09-04T14:52:45.862Z,26.86
2022-09-04T14:55:23.784Z,26.95
2022-09-04T14:57:55.354Z,27.12
2022-09-04T15:00:24.697Z,27.11
2022-09-04T15:02:54.263Z,27.11
2022-09-04T15:05:32.000Z,26.92
2022-09-04T15:08:05.501Z,27.19
2022-09-04T15:10:36.126Z,26.92
2022-09-04T15:13:08.737Z,26.82
2022-09-04T15:15:46.586Z,26.78
2022-09-04T15:18:23.478Z,26.59
2022-09-04T15:21:21.307Z,26.54
2022-09-04T15:23:50.161Z,26.50
2022-09-04T15:26:28.034Z,26.41
2022-09-04T15:29:12.163Z,26.59
2022-09-04T15:31:40.567Z,26.22
2022-09-04T15:34:15.862Z,26.27
2022-09-04T15:36:42.662Z,26.46
2022-09-04T15:39:18.418Z,26.19
2022-09-04T15:41:50.006Z,25.88
2022-09-04T15:44:20.184Z,25.74
2022-09-04T15:47:15.961Z,25.85
2022-09-04T15:49:55.756Z,25.58
2022-09-04T15:52:37.076Z,25.27
2022-09-04T15:55:19.242Z,25.12
2022-09-04T15:57:59.775Z,25.20
2022-09-04T16:00:31.197Z,25.14
2022-09-04T16:03:36.589Z,25.24
2022-09-04T16:06:07.267Z,25.12
2022-09-04T16:08:45.039Z,25.02
2022-09-04T16:11:27.417Z,24.82
2022-09-04T16:14:03.834Z,24.68
2022-09-04T16:16:39.181Z,24.66
2022-09-04T16:19:41.216Z,24.58
2022-09-04T16:22:23.025Z,24.44
2022-09-04T16:24:54.026Z,24.27
2022-09-04T16:27:23.463Z,24.08
2022-09-04T16:29:55.333Z,23.94
2022-09-04T16:32:25.018Z,23.83
2022-09-04T16:35:01.416Z,23.85
2022-09-04T16:37:52.766Z,23.62
2022-09-04T16:40:37.746Z,23.41
2022-09-04T16:43:19.640Z,23.84
2022-09-04T16:45:46.196Z,23.97
2022-09-04T16:48:34.820Z,23.91
2022-09-04T16:51:39.858Z,23.71
2022-09-04T16:54:29.144Z,23.35
2022-09-04T16:57:13.164Z,23.25
2022-09-04T16:59:49.416Z,23.08
2022-09-04T17:02:51.130Z,22.90
2022-09-04T17:05:40.024Z,22.92
2022-09-04T17:08:34.704Z,23.29
2022-09-04T17:11:16.852Z,23.05
2022-09-04T17:13:55.935Z,22.73
2022-09-04T17:16:24.659Z,22.50
2022-09-04T17:18:53.615Z,22.32
2022-09-04T17:29:04.694Z,22.17
2022-09-04T17:29:14.607Z,22.29
2022-09-04T17:29:17.725Z,22.26
2022-09-04T17:31:25.962Z,22.11
2022-09-04T17:40:40.357Z,21.59
2022-09-04T17:40:42.935Z,21.93
2022-09-04T17:40:49.125Z,21.78
2022-09-04T17:43:23.422Z,21.46
2022-09-04T17:46:16.408Z,21.37
2022-09-04T17:48:44.424Z,21.29
2022-09-04T17:51:17.302Z,21.22
2022-09-04T17:53:50.084Z,21.16
2022-09-04T17:56:30.547Z,21.01
2022-09-04T17:59:17.982Z,20.94
2022-09-04T18:02:10.209Z,20.82
2022-09-04T18:05:04.266Z,20.74
2022-09-04T18:08:09.320Z,21.01
2022-09-04T18:10:34.071Z,20.94
2022-09-04T18:13:37.643Z,20.76
2022-09-04T18:16:33.028Z,20.49
2022-09-04T18:19:24.665Z,20.31
2022-09-04T18:22:25.630Z,20.28
2022-09-04T18:24:50.968Z,20.15
2022-09-04T18:27:25.614Z,20.14
2022-09-04T18:32:33.143Z,19.99
2022-09-04T18:37:23.984Z,19.94
2022-09-04T18:37:24.927Z,19.85
2022-09-04T18:39:08.306Z,19.73
2022-09-04T18:47:53.306Z,19.61
2022-09-04T18:50:23.297Z,19.55
2022-09-04T18:50:50.536Z,19.44
2022-09-04T18:51:25.044Z,19.40
2022-09-04T18:54:00.001Z,19.21
2022-09-04T18:56:29.867Z,19.10
2022-09-04T18:59:06.615Z,19.03
2022-09-04T19:01:42.613Z,18.94
2022-09-04T19:04:43.282Z,18.84
2022-09-04T19:07:27.229Z,18.71
2022-09-04T19:10:08.045Z,18.69
2022-09-04T19:13:08.251Z,18.67
2022-09-04T19:15:49.030Z,18.62
2022-09-04T19:18:26.800Z,18.49
2022-09-04T19:21:11.222Z,18.50
2022-09-04T19:23:59.042Z,18.44
2022-09-04T19:26:30.842Z,18.48
2022-09-04T19:29:23.801Z,18.54
2022-09-04T19:31:55.379Z,18.50
2022-09-04T19:34:41.938Z,18.61
2022-09-04T19:37:46.793Z,18.96
2022-09-04T19:45:54.666Z,19.14
2022-09-04T19:46:16.782Z,19.16
2022-09-04T19:46:27.794Z,19.03
2022-09-04T19:53:11.489Z,19.22
2022-09-04T19:53:23.933Z,19.48
2022-09-04T19:55:43.831Z,19.50
2022-09-04T19:58:33.565Z,19.69
2022-09-04T20:01:02.920Z,19.65
2022-09-04T20:03:38.352Z,19.66
2022-09-04T20:06:20.789Z,19.75
2022-09-04T20:08:57.488Z,19.80
2022-09-04T20:11:35.869Z,19.63
2022-09-04T20:14:13.936Z,19.76
2022-09-04T20:17:53.885Z,19.72
2022-09-04T20:20:26.959Z,19.42
2022-09-04T20:22:57.244Z,19.32
2022-09-04T20:25:52.474Z,19.30
2022-09-04T20:28:22.238Z,18.97
2022-09-04T20:31:30.332Z,18.72
2022-09-04T20:34:00.461Z,18.91
2022-09-04T20:36:34.855Z,18.85
2022-09-04T20:39:08.446Z,18.59
2022-09-04T20:42:05.035Z,18.48
2022-09-04T20:48:12.624Z,18.36
2022-09-04T20:52:43.090Z,18.32
2022-09-04T20:52:53.855Z,18.31
2022-09-04T20:54:34.030Z,18.18
2022-09-04T21:01:55.002Z,18.14
2022-09-04T21:03:17.249Z,18.27
2022-09-04T21:03:57.273Z,18.37
2022-09-04T21:06:48.593Z,18.27
2022-09-04T21:09:59.944Z,18.21
2022-09-04T21:13:28.217Z,18.52
2022-09-04T21:16:45.314Z,18.50
2022-09-04T21:19:40.529Z,18.30
2022-09-04T21:22:33.646Z,18.34
2022-09-04T21:25:35.706Z,18.49
2022-09-04T21:28:27.815Z,18.53
2022-09-04T21:31:14.875Z,18.37
2022-09-04T21:34:04.420Z,18.31
2022-09-04T21:36:52.558Z,18.16
2022-09-04T21:39:36.448Z,18.25
2022-09-04T21:42:28.669Z,18.25
2022-09-04T21:45:26.564Z,18.36
2022-09-04T21:48:52.343Z,18.46
2022-09-04T21:59:43.880Z,18.83
2022-09-04T22:02:28.468Z,19.17
2022-09-04T22:02:45.678Z,19.07
2022-09-04T22:04:21.204Z,19.41
2022-09-04T22:10:14.044Z,19.32
2022-09-04T22:13:35.445Z,19.53
2022-09-04T22:13:49.173Z,19.52
2022-09-04T22:16:19.329Z,19.60
2022-09-04T22:19:41.892Z,19.36
2022-09-04T22:22:50.078Z,19.16
2022-09-04T22:25:33.425Z,19.20
2022-09-04T22:28:10.178Z,18.98
2022-09-04T22:31:03.741Z,19.05
2022-09-04T22:34:15.156Z,19.28
2022-09-04T22:37:00.634Z,19.20
2022-09-04T22:39:44.063Z,19.23
2022-09-04T22:42:31.499Z,19.17
2022-09-04T22:45:23.488Z,19.12
2022-09-04T22:48:01.826Z,19.26
2022-09-04T22:50:55.259Z,19.34
2022-09-04T22:53:46.139Z,19.52
2022-09-04T22:56:59.432Z,19.39
2022-09-04T23:00:02.593Z,19.23
2022-09-04T23:03:08.762Z,19.34
2022-09-04T23:05:49.864Z,19.18
2022-09-04T23:13:46.986Z,19.14
2022-09-04T23:13:54.482Z,19.18
2022-09-04T23:14:40.367Z,19.34
2022-09-04T23:17:31.923Z,19.32
2022-09-04T23:26:49.019Z,18.99
2022-09-04T23:26:58.599Z,19.00
2022-09-04T23:29:26.799Z,19.12
2022-09-04T23:32:22.530Z,19.04
2022-09-04T23:35:13.755Z,18.96
2022-09-04T23:38:19.981Z,19.04
2022-09-04T23:40:51.977Z,18.90
2022-09-04T23:43:55.211Z,19.10
2022-09-04T23:46:39.369Z,19.20
2022-09-04T23:49:40.415Z,19.03
2022-09-04T23:53:04.794Z,18.85
2022-09-04T23:56:05.331Z,18.84
2022-09-04T23:59:20.429Z,18.86
